createdAt,value
2023-01-08T00:01:14.295Z,9.35
2023-01-08T00:03:46.536Z,9.34
2023-01-08T00:06:19.369Z,9.33
2023-01-08T00:08:48.884Z,9.34
2023-01-08T00:11:18.341Z,9.36
2023-01-08T00:13:49.453Z,9.36
2023-01-08T00:16:22.279Z,9.39
2023-01-08T00:18:53.124Z,9.40
2023-01-08T00:21:22.645Z,9.42
2023-01-08T00:23:52.758Z,9.42
2023-01-08T00:26:22.215Z,9.43
2023-01-08T00:28:51.319Z,9.42
2023-01-08T00:31:20.911Z,9.45
2023-01-08T00:33:51.227Z,9.44
2023-01-08T00:36:21.188Z,9.46
2023-01-08T00:38:51.194Z,9.47
2023-01-08T00:41:20.684Z,9.46
2023-01-08T00:43:51.228Z,9.47
2023-01-08T00:46:20.725Z,9.48
2023-01-08T00:48:52.037Z,9.49
2023-01-08T00:51:21.358Z,9.47
2023-01-08T00:53:51.353Z,9.49
2023-01-08T00:56:21.882Z,9.48
2023-01-08T00:58:51.407Z,9.49
2023-01-08T01:01:21.582Z,9.52
2023-01-08T01:03:51.896Z,9.50
2023-01-08T01:06:21.600Z,9.51
2023-01-08T01:08:50.987Z,9.56
2023-01-08T01:11:23.439Z,9.55
2023-01-08T01:13:54.051Z,9.55
2023-01-08T01:16:24.055Z,9.56
2023-01-08T01:18:57.232Z,9.56
2023-01-08T01:21:29.541Z,9.57
2023-01-08T01:24:02.463Z,9.57
2023-01-08T01:26:32.295Z,9.57
2023-01-08T01:29:03.646Z,9.58
2023-01-08T01:31:34.450Z,9.56
2023-01-08T01:34:06.559Z,9.56
2023-01-08T01:36:35.982Z,9.55
2023-01-08T01:39:06.642Z,9.51
2023-01-08T01:41:42.889Z,9.50
2023-01-08T01:44:40.928Z,9.52
2023-01-08T01:47:23.429Z,9.51
2023-01-08T01:50:02.075Z,9.53
2023-01-08T01:52:38.628Z,9.52
2023-01-08T01:55:11.144Z,9.47
2023-01-08T01:57:41.718Z,9.49
2023-01-08T02:00:12.285Z,9.47
2023-01-08T02:02:41.297Z,9.49
2023-01-08T02:05:14.475Z,9.52
2023-01-08T02:07:55.013Z,9.51
2023-01-08T02:10:39.605Z,9.51
2023-01-08T02:13:18.648Z,9.51
2023-01-08T02:15:58.747Z,9.50
2023-01-08T02:18:38.931Z,9.51
2023-01-08T02:21:15.986Z,9.53
2023-01-08T02:23:51.114Z,9.53
2023-01-08T02:26:28.391Z,9.50
2023-01-08T02:29:05.328Z,9.50
2023-01-08T02:31:37.142Z,9.49
2023-01-08T02:34:08.023Z,9.50
2023-01-08T02:36:43.669Z,9.49
2023-01-08T02:39:30.493Z,9.50
2023-01-08T02:42:11.088Z,9.51
2023-01-08T02:44:55.914Z,9.50
2023-01-08T02:47:34.221Z,9.48
2023-01-08T02:50:12.432Z,9.50
2023-01-08T02:52:54.859Z,9.49
2023-01-08T02:55:29.432Z,9.48
2023-01-08T02:58:02.348Z,9.49
2023-01-08T03:00:32.505Z,9.49
2023-01-08T03:03:12.883Z,9.48
2023-01-08T03:05:50.321Z,9.47
2023-01-08T03:08:22.457Z,9.43
2023-01-08T03:11:03.109Z,9.44
2023-01-08T03:13:43.810Z,9.44
2023-01-08T03:16:19.482Z,9.44
2023-01-08T03:18:56.677Z,9.44
2023-01-08T03:21:27.161Z,9.47
2023-01-08T03:23:58.915Z,9.43
2023-01-08T03:26:31.012Z,9.43
2023-01-08T03:29:03.443Z,9.43
2023-01-08T03:31:36.913Z,9.42
2023-01-08T03:34:09.913Z,9.44
2023-01-08T03:36:43.602Z,9.42
2023-01-08T03:39:21.315Z,9.43
2023-01-08T03:41:51.711Z,9.41
2023-01-08T03:44:22.008Z,9.43
2023-01-08T03:46:57.133Z,9.44
2023-01-08T03:49:31.434Z,9.43
2023-01-08T03:52:00.464Z,9.41
2023-01-08T03:54:34.982Z,9.39
2023-01-08T03:57:04.935Z,9.41
2023-01-08T03:59:36.361Z,9.38
2023-01-08T04:02:06.480Z,9.34
2023-01-08T04:04:35.650Z,9.36
2023-01-08T04:07:05.757Z,9.35
2023-01-08T04:09:34.907Z,9.33
2023-01-08T04:12:05.196Z,9.35
2023-01-08T04:14:35.278Z,9.37
2023-01-08T04:17:05.247Z,9.34
2023-01-08T04:19:34.402Z,9.37
2023-01-08T04:22:04.175Z,9.34
2023-01-08T04:24:34.124Z,9.33
2023-01-08T04:27:03.244Z,9.32
2023-01-08T04:29:32.551Z,9.32
2023-01-08T04:32:04.033Z,9.29
2023-01-08T04:34:34.375Z,9.31
2023-01-08T04:37:04.755Z,9.32
2023-01-08T04:39:34.837Z,9.31
2023-01-08T04:42:05.048Z,9.31
2023-01-08T04:44:35.133Z,9.32
2023-01-08T04:47:06.079Z,9.32
2023-01-08T04:49:36.635Z,9.32
2023-01-08T04:52:07.445Z,9.30
2023-01-08T04:54:37.548Z,9.30
2023-01-08T04:57:07.933Z,9.29
2023-01-08T04:59:37.423Z,9.30
2023-01-08T05:02:08.630Z,9.26
2023-01-08T05:04:38.585Z,9.28
2023-01-08T05:07:08.600Z,9.30
2023-01-08T05:09:39.017Z,9.29
2023-01-08T05:12:08.983Z,9.29
2023-01-08T05:14:39.396Z,9.27
2023-01-08T05:17:10.269Z,9.26
2023-01-08T05:19:39.702Z,9.21
2023-01-08T05:22:09.498Z,9.22
2023-01-08T05:24:40.032Z,9.23
2023-01-08T05:27:08.437Z,9.21
2023-01-08T05:29:38.021Z,9.21
2023-01-08T05:32:17.032Z,9.21
2023-01-08T05:34:47.549Z,9.21
2023-01-08T05:37:18.531Z,9.23
2023-01-08T05:39:48.432Z,9.22
2023-01-08T05:42:19.842Z,9.24
2023-01-08T05:44:49.835Z,9.25
2023-01-08T05:47:21.643Z,9.26
2023-01-08T05:49:51.739Z,9.25
2023-01-08T05:52:21.715Z,9.26
2023-01-08T05:54:52.228Z,9.25
2023-01-08T05:57:21.994Z,9.26
2023-01-08T05:59:52.471Z,9.26
2023-01-08T06:02:22.835Z,9.27
2023-01-08T06:04:53.617Z,9.28
2023-01-08T06:07:24.219Z,9.27
2023-01-08T06:09:53.996Z,9.24
2023-01-08T06:12:24.180Z,9.21
2023-01-08T06:14:53.723Z,9.22
2023-01-08T06:17:25.183Z,9.23
2023-01-08T06:19:54.984Z,9.21
2023-01-08T06:22:25.561Z,9.20
2023-01-08T06:24:56.357Z,9.19
2023-01-08T06:27:28.609Z,9.22
2023-01-08T06:29:57.771Z,9.23
2023-01-08T06:32:29.507Z,9.22
2023-01-08T06:35:00.248Z,9.22
2023-01-08T06:37:30.732Z,9.26
2023-01-08T06:40:02.820Z,9.22
2023-01-08T06:42:32.417Z,9.24
2023-01-08T06:45:02.005Z,9.23
2023-01-08T06:47:34.461Z,9.22
2023-01-08T06:50:04.656Z,9.21
2023-01-08T06:52:34.359Z,9.22
2023-01-08T06:55:05.586Z,9.22
2023-01-08T06:57:38.938Z,9.22
2023-01-08T07:00:11.296Z,9.22
2023-01-08T07:02:43.061Z,9.22
2023-01-08T07:05:14.811Z,9.20
2023-01-08T07:07:44.487Z,9.20
2023-01-08T07:10:13.979Z,9.18
2023-01-08T07:12:45.281Z,9.19
2023-01-08T07:15:14.179Z,9.19
2023-01-08T07:17:45.036Z,9.17
2023-01-08T07:20:14.987Z,9.18
2023-01-08T07:22:45.388Z,9.14
2023-01-08T07:25:16.243Z,9.08
2023-01-08T07:27:46.254Z,9.12
2023-01-08T07:30:28.721Z,9.14
2023-01-08T07:33:02.473Z,9.12
2023-01-08T07:35:31.551Z,9.13
2023-01-08T07:38:00.987Z,9.06
2023-01-08T07:40:31.849Z,9.07
2023-01-08T07:43:01.980Z,9.05
2023-01-08T07:45:34.368Z,9.05
2023-01-08T07:48:04.815Z,9.00
2023-01-08T07:50:35.136Z,9.01
2023-01-08T07:53:05.207Z,9.03
2023-01-08T07:55:34.798Z,9.01
2023-01-08T07:58:10.805Z,9.02
2023-01-08T08:00:40.518Z,9.00
2023-01-08T08:03:13.146Z,8.96
2023-01-08T08:05:43.405Z,8.98
2023-01-08T08:08:14.453Z,8.98
2023-01-08T08:10:45.344Z,8.98
2023-01-08T08:13:14.699Z,8.94
2023-01-08T08:15:44.276Z,8.96
2023-01-08T08:18:16.428Z,8.96
2023-01-08T08:20:45.993Z,8.99
2023-01-08T08:23:16.335Z,8.97
2023-01-08T08:25:45.715Z,8.96
2023-01-08T08:28:15.936Z,8.99
2023-01-08T08:30:45.529Z,8.99
2023-01-08T08:33:15.908Z,9.01
2023-01-08T08:35:51.280Z,8.98
2023-01-08T08:38:23.175Z,8.95
2023-01-08T08:40:54.595Z,8.99
2023-01-08T08:43:24.099Z,8.99
2023-01-08T08:45:54.647Z,8.99
2023-01-08T08:48:24.949Z,9.02
2023-01-08T08:50:54.938Z,9.02
2023-01-08T08:53:25.851Z,9.00
2023-01-08T08:56:00.888Z,9.02
2023-01-08T08:58:30.345Z,9.00
2023-01-08T09:01:04.645Z,9.00
2023-01-08T09:03:35.576Z,8.99
2023-01-08T09:06:04.896Z,8.99
2023-01-08T09:08:34.410Z,8.99
2023-01-08T09:11:05.387Z,8.99
2023-01-08T09:13:36.400Z,9.02
2023-01-08T09:16:06.371Z,9.03
2023-01-08T09:18:37.262Z,9.02
2023-01-08T09:21:08.168Z,9.02
2023-01-08T09:23:37.650Z,9.02
2023-01-08T09:26:08.057Z,9.00
2023-01-08T09:28:38.593Z,9.03
2023-01-08T09:31:07.393Z,9.03
2023-01-08T09:33:38.267Z,9.05
2023-01-08T09:36:13.342Z,9.04
2023-01-08T09:38:45.041Z,9.09
2023-01-08T09:41:22.584Z,9.07
2023-01-08T09:43:57.281Z,9.07
2023-01-08T09:46:30.209Z,9.09
2023-01-08T09:49:06.531Z,9.12
2023-01-08T09:51:39.768Z,9.14
2023-01-08T09:54:16.664Z,9.17
2023-01-08T09:56:48.031Z,9.22
2023-01-08T09:59:20.376Z,9.23
2023-01-08T10:01:49.882Z,9.25
2023-01-08T10:04:23.845Z,9.27
2023-01-08T10:06:57.627Z,9.28
2023-01-08T10:09:31.529Z,9.31
2023-01-08T10:12:05.156Z,9.32
2023-01-08T10:14:38.877Z,9.35
2023-01-08T10:17:25.065Z,9.39
2023-01-08T10:19:55.485Z,9.37
2023-01-08T10:22:27.474Z,9.37
2023-01-08T10:25:11.195Z,9.35
2023-01-08T10:27:51.597Z,9.39
2023-01-08T10:30:25.153Z,9.38
2023-01-08T10:32:57.230Z,9.38
2023-01-08T10:35:39.115Z,9.38
2023-01-08T10:38:09.231Z,9.36
2023-01-08T10:40:43.099Z,9.36
2023-01-08T10:43:20.424Z,9.34
2023-01-08T10:46:01.082Z,9.36
2023-01-08T10:48:39.371Z,9.38
2023-01-08T10:51:18.367Z,9.38
2023-01-08T10:53:49.451Z,9.38
2023-01-08T10:56:23.787Z,9.37
2023-01-08T10:58:55.815Z,9.39
2023-01-08T11:01:29.390Z,9.36
2023-01-08T11:04:01.216Z,9.37
2023-01-08T11:06:34.301Z,9.39
2023-01-08T11:09:17.569Z,9.39
2023-01-08T11:11:47.243Z,9.42
2023-01-08T11:14:25.766Z,9.43
2023-01-08T11:16:56.275Z,9.44
2023-01-08T11:19:27.899Z,9.44
2023-01-08T11:22:01.701Z,9.46
2023-01-08T11:24:34.725Z,9.50
2023-01-08T11:27:11.697Z,9.54
2023-01-08T11:29:47.472Z,9.55
2023-01-08T11:32:42.519Z,9.53
2023-01-08T11:35:19.044Z,9.53
2023-01-08T11:37:55.471Z,9.59
2023-01-08T11:40:41.468Z,9.55
2023-01-08T11:43:45.651Z,9.53
2023-01-08T11:46:32.138Z,9.53
2023-01-08T11:49:48.109Z,9.56
2023-01-08T11:52:36.253Z,9.51
2023-01-08T11:55:45.621Z,9.55
2023-01-08T11:58:30.136Z,9.52
2023-01-08T12:01:32.787Z,9.54
2023-01-08T12:04:35.964Z,9.53
2023-01-08T12:07:20.200Z,9.56
2023-01-08T12:10:00.714Z,9.54
2023-01-08T12:12:53.904Z,9.52
2023-01-08T12:15:37.878Z,9.54
2023-01-08T12:18:29.164Z,9.53
2023-01-08T12:21:12.938Z,9.50
2023-01-08T12:24:10.797Z,9.48
2023-01-08T12:27:00.094Z,9.43
2023-01-08T12:30:18.926Z,9.47
2023-01-08T12:32:53.561Z,9.50
2023-01-08T12:35:29.817Z,9.47
2023-01-08T12:38:07.170Z,9.49
2023-01-08T12:40:43.585Z,9.51
2023-01-08T12:43:23.265Z,9.52
2023-01-08T12:46:01.165Z,9.50
2023-01-08T12:48:34.951Z,9.56
2023-01-08T12:51:18.024Z,9.59
2023-01-08T12:54:04.172Z,9.59
2023-01-08T12:56:52.161Z,9.61
2023-01-08T12:59:39.863Z,9.59
2023-01-08T13:02:27.252Z,9.64
2023-01-08T13:04:56.471Z,9.67
2023-01-08T13:07:31.202Z,9.61
2023-01-08T13:10:05.928Z,9.63
2023-01-08T13:12:41.102Z,9.63
2023-01-08T13:15:22.242Z,9.63
2023-01-08T13:17:56.775Z,9.66
2023-01-08T13:20:30.177Z,9.66
2023-01-08T13:23:03.021Z,9.66
2023-01-08T13:25:35.752Z,9.68
2023-01-08T13:28:29.980Z,9.66
2023-01-08T13:31:11.488Z,9.65
2023-01-08T13:33:44.200Z,9.61
2023-01-08T13:36:24.899Z,9.66
2023-01-08T13:39:23.830Z,9.69
2023-01-08T13:42:43.263Z,9.72
2023-01-08T13:45:16.779Z,9.70
2023-01-08T13:47:47.382Z,9.70
2023-01-08T13:50:25.168Z,9.74
2023-01-08T13:53:00.900Z,9.76
2023-01-08T13:55:36.472Z,9.80
2023-01-08T13:58:14.436Z,9.77
2023-01-08T14:00:51.816Z,9.78
2023-01-08T14:03:26.787Z,9.79
2023-01-08T14:06:08.650Z,9.81
2023-01-08T14:08:37.708Z,9.79
2023-01-08T14:11:07.649Z,9.78
2023-01-08T14:13:38.149Z,9.80
2023-01-08T14:16:15.089Z,9.79
2023-01-08T14:18:46.122Z,9.73
2023-01-08T14:21:21.970Z,9.74
2023-01-08T14:23:54.170Z,9.73
2023-01-08T14:26:32.554Z,9.75
2023-01-08T14:29:02.847Z,9.75
2023-01-08T14:31:32.339Z,9.72
2023-01-08T14:34:03.752Z,9.70
2023-01-08T14:36:34.071Z,9.69
2023-01-08T14:39:03.661Z,9.65
2023-01-08T14:41:52.187Z,9.60
2023-01-08T14:44:29.206Z,9.61
2023-01-08T14:47:07.717Z,9.63
2023-01-08T14:49:43.311Z,9.65
2023-01-08T14:52:18.370Z,9.66
2023-01-08T14:55:01.016Z,9.66
2023-01-08T14:57:30.975Z,9.66
2023-01-08T15:00:03.765Z,9.65
2023-01-08T15:02:37.815Z,9.65
2023-01-08T15:05:19.127Z,9.67
2023-01-08T15:08:02.874Z,9.65
2023-01-08T15:10:42.156Z,9.65
2023-01-08T15:13:25.884Z,9.61
2023-01-08T15:16:00.214Z,9.64
2023-01-08T15:18:29.919Z,9.64
2023-01-08T15:20:59.167Z,9.62
2023-01-08T15:23:39.363Z,9.61
2023-01-08T15:26:13.955Z,9.61
2023-01-08T15:28:50.891Z,9.59
2023-01-08T15:31:31.669Z,9.58
2023-01-08T15:34:02.093Z,9.53
2023-01-08T15:36:31.786Z,9.53
2023-01-08T15:39:02.403Z,9.51
2023-01-08T15:41:54.404Z,9.44
2023-01-08T15:44:23.181Z,9.42
2023-01-08T15:46:54.470Z,9.40
2023-01-08T15:49:24.588Z,9.40
2023-01-08T15:51:54.598Z,9.33
2023-01-08T15:54:27.310Z,9.32
2023-01-08T15:56:56.373Z,9.28
2023-01-08T15:59:24.786Z,9.27
2023-01-08T16:01:54.983Z,9.28
2023-01-08T16:04:24.222Z,9.24
2023-01-08T16:06:53.196Z,9.22
2023-01-08T16:09:22.770Z,9.20
2023-01-08T16:11:53.902Z,9.21
2023-01-08T16:14:22.880Z,9.20
2023-01-08T16:16:51.757Z,9.20
2023-01-08T16:19:20.799Z,9.20
2023-01-08T16:21:50.245Z,9.19
2023-01-08T16:24:19.747Z,9.17
2023-01-08T16:26:49.533Z,9.17
2023-01-08T16:29:20.717Z,9.17
2023-01-08T16:31:51.903Z,9.11
2023-01-08T16:34:20.395Z,9.12
2023-01-08T16:36:49.775Z,9.11
2023-01-08T16:39:20.002Z,9.09
2023-01-08T16:41:49.585Z,9.07
2023-01-08T16:44:26.942Z,9.09
2023-01-08T16:46:56.092Z,9.07
2023-01-08T16:49:25.875Z,9.08
2023-01-08T16:51:54.938Z,9.06
2023-01-08T16:54:24.955Z,9.06
2023-01-08T16:56:54.564Z,9.03
2023-01-08T16:59:27.239Z,9.02
2023-01-08T17:01:57.142Z,9.01
2023-01-08T17:04:27.667Z,9.00
2023-01-08T17:06:57.141Z,8.97
2023-01-08T17:09:26.907Z,8.97
2023-01-08T17:11:55.496Z,8.99
2023-01-08T17:14:26.755Z,8.96
2023-01-08T17:16:56.154Z,8.96
2023-01-08T17:19:25.392Z,8.96
2023-01-08T17:21:53.852Z,8.96
2023-01-08T17:24:23.947Z,8.96
2023-01-08T17:26:54.081Z,8.96
2023-01-08T17:29:26.094Z,8.96
2023-01-08T17:31:55.524Z,8.98
2023-01-08T17:34:26.211Z,8.97
2023-01-08T17:36:56.875Z,8.98
2023-01-08T17:39:27.298Z,8.98
2023-01-08T17:42:13.739Z,8.97
2023-01-08T17:44:45.601Z,8.98
2023-01-08T17:47:15.051Z,8.98
2023-01-08T17:49:45.181Z,8.97
2023-01-08T17:52:15.517Z,8.97
2023-01-08T17:54:44.352Z,8.96
2023-01-08T17:57:13.512Z,8.94
2023-01-08T17:59:43.958Z,8.92
2023-01-08T18:02:15.912Z,8.92
2023-01-08T18:04:46.619Z,8.91
2023-01-08T18:07:15.947Z,8.88
2023-01-08T18:09:45.679Z,8.86
2023-01-08T18:12:16.448Z,8.86
2023-01-08T18:14:46.236Z,8.89
2023-01-08T18:17:15.757Z,8.85
2023-01-08T18:19:45.092Z,8.84
2023-01-08T18:22:14.139Z,8.84
2023-01-08T18:24:43.152Z,8.85
2023-01-08T18:27:13.115Z,8.86
2023-01-08T18:29:42.913Z,8.84
2023-01-08T18:32:13.777Z,8.83
2023-01-08T18:34:43.299Z,8.84
2023-01-08T18:37:13.867Z,8.86
2023-01-08T18:39:42.996Z,8.87
2023-01-08T18:42:27.281Z,8.87
2023-01-08T18:44:57.552Z,8.88
2023-01-08T18:47:29.549Z,8.87
2023-01-08T18:50:03.639Z,8.90
2023-01-08T18:52:32.745Z,8.91
2023-01-08T18:55:02.304Z,8.91
2023-01-08T18:57:33.052Z,8.93
2023-01-08T19:00:03.567Z,8.89
2023-01-08T19:02:35.225Z,8.90
2023-01-08T19:05:04.172Z,8.91
2023-01-08T19:07:34.270Z,8.90
2023-01-08T19:10:03.887Z,8.92
2023-01-08T19:12:33.462Z,8.91
2023-01-08T19:15:03.012Z,8.93
2023-01-08T19:17:34.237Z,8.93
2023-01-08T19:20:04.263Z,8.94
2023-01-08T19:22:33.531Z,8.94
2023-01-08T19:25:03.041Z,8.93
2023-01-08T19:27:32.613Z,8.93
2023-01-08T19:30:02.127Z,8.90
2023-01-08T19:32:31.502Z,8.90
2023-01-08T19:35:01.905Z,8.91
2023-01-08T19:37:32.347Z,8.92
2023-01-08T19:40:03.486Z,8.92
2023-01-08T19:42:51.476Z,8.89
2023-01-08T19:45:20.784Z,8.90
2023-01-08T19:47:49.818Z,8.92
2023-01-08T19:50:20.633Z,8.90
2023-01-08T19:52:51.287Z,8.90
2023-01-08T19:55:22.753Z,8.87
2023-01-08T19:57:51.913Z,8.90
2023-01-08T20:00:23.642Z,8.92
2023-01-08T20:02:54.131Z,8.91
2023-01-08T20:05:24.472Z,8.90
2023-01-08T20:07:54.923Z,8.93
2023-01-08T20:10:24.584Z,8.91
2023-01-08T20:12:53.577Z,8.91
2023-01-08T20:15:23.217Z,8.91
2023-01-08T20:17:52.804Z,8.91
2023-01-08T20:20:24.088Z,8.92
2023-01-08T20:22:52.655Z,8.89
2023-01-08T20:25:21.112Z,8.87
2023-01-08T20:27:50.689Z,8.88
2023-01-08T20:30:20.508Z,8.88
2023-01-08T20:35:19.612Z,8.86
2023-01-08T20:37:49.540Z,8.86
2023-01-08T20:40:19.315Z,8.87
2023-01-08T20:42:50.599Z,8.90
2023-01-08T20:45:20.521Z,8.89
2023-01-08T20:47:50.798Z,8.88
2023-01-08T20:50:21.123Z,8.88
2023-01-08T20:52:52.161Z,8.80
2023-01-08T20:55:22.603Z,8.79
2023-01-08T20:57:52.546Z,8.81
2023-01-08T21:00:22.611Z,8.80
2023-01-08T21:02:52.449Z,8.82
2023-01-08T21:05:21.972Z,8.79
2023-01-08T21:07:53.404Z,8.78
2023-01-08T21:10:23.558Z,8.76
2023-01-08T21:12:53.546Z,8.77
2023-01-08T21:15:22.696Z,8.77
2023-01-08T21:17:51.848Z,8.77
2023-01-08T21:20:22.494Z,8.75
2023-01-08T21:22:53.392Z,8.74
2023-01-08T21:25:23.492Z,8.73
2023-01-08T21:27:53.815Z,8.75
2023-01-08T21:30:24.572Z,8.78
2023-01-08T21:32:53.529Z,8.77
2023-01-08T21:35:22.064Z,8.75
2023-01-08T21:37:56.535Z,8.75
2023-01-08T21:40:26.149Z,8.71
2023-01-08T21:43:12.829Z,8.71
2023-01-08T21:45:41.449Z,8.73
2023-01-08T21:48:10.922Z,8.73
2023-01-08T21:50:40.481Z,8.71
2023-01-08T21:53:28.242Z,8.73
2023-01-08T21:55:59.176Z,8.74
2023-01-08T21:58:29.735Z,8.73
2023-01-08T22:00:59.743Z,8.74
2023-01-08T22:03:28.746Z,8.76
2023-01-08T22:06:03.313Z,8.74
2023-01-08T22:08:36.591Z,8.72
2023-01-08T22:11:09.319Z,8.72
2023-01-08T22:13:39.458Z,8.75
2023-01-08T22:16:11.629Z,8.76
2023-01-08T22:18:42.054Z,8.75
2023-01-08T22:21:14.103Z,8.75
2023-01-08T22:23:44.906Z,8.77
2023-01-08T22:26:15.678Z,8.77
2023-01-08T22:28:45.820Z,8.79
2023-01-08T22:31:16.693Z,8.77
2023-01-08T22:33:47.985Z,8.77
2023-01-08T22:36:17.500Z,8.76
2023-01-08T22:38:47.452Z,8.77
2023-01-08T22:41:19.792Z,8.77
2023-01-08T22:43:49.791Z,8.76
2023-01-08T22:46:19.191Z,8.76
2023-01-08T22:48:48.725Z,8.76
2023-01-08T22:51:18.310Z,8.76
2023-01-08T22:53:49.739Z,8.76
2023-01-08T22:56:18.773Z,8.75
2023-01-08T22:58:49.001Z,8.75
2023-01-08T23:01:22.273Z,8.75
2023-01-08T23:03:52.910Z,8.76
2023-01-08T23:06:25.089Z,8.77
2023-01-08T23:08:56.232Z,8.78
2023-01-08T23:11:26.312Z,8.79
2023-01-08T23:13:56.347Z,8.79
2023-01-08T23:16:27.339Z,8.81
2023-01-08T23:18:58.012Z,8.75
2023-01-08T23:21:29.839Z,8.67
2023-01-08T23:24:00.467Z,8.50
2023-01-08T23:26:30.932Z,8.46
2023-01-08T23:29:01.551Z,8.41
2023-01-08T23:31:33.097Z,8.41
2023-01-08T23:34:02.886Z,8.37
2023-01-08T23:36:32.637Z,8.37
2023-01-08T23:39:03.495Z,8.37
2023-01-08T23:41:35.130Z,8.36
2023-01-08T23:44:08.153Z,8.32
2023-01-08T23:46:37.979Z,8.28
2023-01-08T23:49:07.270Z,8.31
2023-01-08T23:51:42.655Z,8.35
2023-01-08T23:54:14.435Z,8.30
2023-01-08T23:56:44.054Z,8.29
2023-01-08T23:59:13.535Z,8.29
